Airfield :
LOGIN :

Register | Disclaimer

   EN    FR    IT 

 










Legend :    VFR   Marginal VFR   IFR   Intensive IFR   Very Intensive IFR
Visi :
Ceiling :
>= 8 km
>= 3000ft
5 to 8 km
1000 to 3000 ft
1500m to 5 km
500 to 1000 ft
800 to 1500m
200 to 500 ft
< 800m
< 200 ft
Symbols :   Thunderstorms  Fog  Heavy snow  Heavy precipitations  Wind > 20 kt
SIGMETs :     Misc.  Thunderstorms  Icing  Turbulence  Mountain Waves  Volcanic Ashes







- Airport Elevation : 18 ft


LIPC - Cervia AFB Ravenna

CURRENT METAR :
  • 251955Z 01001KT CAVOK 12/04 Q1006 RMK SKC VIS MIN 9999 WIND THR11 /////KT WIND THR29 13001KT BLU

EXPIRED METARs :
  • 251855Z 18004KT CAVOK 15/04 Q1006 RMK SKC VIS MIN 9999 WIND THR11 /////KT WIND THR29 11003KT BLU
  • 251755Z 15003KT CAVOK 16/06 Q1006 RMK SKC VIS MIN 9999 WIND THR11 /////KT WIND THR29 19002KT BLU

TAF TAF LIPC
Valid from the 25 at 21:00 until the 26 at 06:00 UTC


252000Z 2521/2606 04015KT 9999 SCT015 BKN020
TEMPO 2521/2606 04020G40KT 5000 RA
PROB30
TEMPO 2521/2524 3000 SHRA FEW020CB BKN030
No reported NOTAMs for that airfield.
2 SIGMETs reported for the Milano FIR (LIMM) :
 
Severe turbulence
LIMM SIGMET 3 VALID 252000/252200 LIIP
LIMM MILANO FIR SEV TURB FCST WI N4548 E00658 - N4508 E00854 - N4536 E01111 - N4651 E01137 - N4646 E01025 - N4630 E00920 - N4601 E00858 - N4627 E00829 - N4548 E00658 SFC/040 STNR WKN=
Severe turbulence
LIMM SIGMET 2 VALID 251845/252000 LIIP
LIMM MILANO FIR SEV TURB OBS WI N4622 E00818 - N4550 E00910 - N4625 E00923 - N4610 E01058 - N4455 E01025 - N4508 E00829 - N4622 E00818 SFC/040 STNR NC=



MET'MAP, your aeronautical weather chart ! - Copyright ORBIFLY December 2007 - Disclaimer

ORBIFLY MET'MAP TEAM :

Programming & Development : Alexandra Zaïnal
Concept & Development : Baudouin d'Aumeries
Co-Development & Prog : Marc-Olivier Méhu
Technical & hardware support : Manuel Goepfert

Contact : metmap@orbifly.com




SOURCES & CREDITS :

   NOAA